sensor_id;sensor_type;location;lat;lon;timestamp;temperature;humidity
13610;DHT22;6876;50.788;4.940;2023-04-03T00:00:36;3.40;99.90
13610;DHT22;6876;50.788;4.940;2023-04-03T00:03:23;3.40;99.90
13610;DHT22;6876;50.788;4.940;2023-04-03T00:06:11;3.30;99.90
13610;DHT22;6876;50.788;4.940;2023-04-03T00:08:58;3.30;99.90
13610;DHT22;6876;50.788;4.940;2023-04-03T00:11:47;3.30;99.90
13610;DHT22;6876;50.788;4.940;2023-04-03T00:14:34;3.20;99.90
13610;DHT22;6876;50.788;4.940;2023-04-03T00:17:22;3.30;99.90
13610;DHT22;6876;50.788;4.940;2023-04-03T00:20:09;3.20;99.90
13610;DHT22;6876;50.788;4.940;2023-04-03T00:22:57;3.20;99.90
13610;DHT22;6876;50.788;4.940;2023-04-03T00:25:44;3.20;99.90
13610;DHT22;6876;50.788;4.940;2023-04-03T00:28:33;3.30;99.90
13610;DHT22;6876;50.788;4.940;2023-04-03T00:31:20;3.20;99.90
13610;DHT22;6876;50.788;4.940;2023-04-03T00:34:07;3.20;99.90
13610;DHT22;6876;50.788;4.940;2023-04-03T00:36:54;3.20;99.90
13610;DHT22;6876;50.788;4.940;2023-04-03T00:39:42;3.20;99.90
13610;DHT22;6876;50.788;4.940;2023-04-03T00:42:29;3.10;99.90
13610;DHT22;6876;50.788;4.940;2023-04-03T00:45:37;3.00;99.90
13610;DHT22;6876;50.788;4.940;2023-04-03T00:48:28;3.00;99.90
13610;DHT22;6876;50.788;4.940;2023-04-03T00:51:19;2.90;99.90
13610;DHT22;6876;50.788;4.940;2023-04-03T00:54:07;2.90;99.90
13610;DHT22;6876;50.788;4.940;2023-04-03T00:56:56;2.90;99.90
13610;DHT22;6876;50.788;4.940;2023-04-03T00:59:46;2.90;99.90
13610;DHT22;6876;50.788;4.940;2023-04-03T01:02:36;2.90;99.90
13610;DHT22;6876;50.788;4.940;2023-04-03T01:05:24;2.90;99.90
13610;DHT22;6876;50.788;4.940;2023-04-03T01:08:11;2.80;99.90
13610;DHT22;6876;50.788;4.940;2023-04-03T01:10:58;2.90;99.90
13610;DHT22;6876;50.788;4.940;2023-04-03T01:13:45;2.80;99.90
13610;DHT22;6876;50.788;4.940;2023-04-03T01:16:33;2.80;99.90
13610;DHT22;6876;50.788;4.940;2023-04-03T01:19:22;2.80;99.90
13610;DHT22;6876;50.788;4.940;2023-04-03T01:22:15;2.80;99.90
13610;DHT22;6876;50.788;4.940;2023-04-03T01:25:06;2.80;99.90
13610;DHT22;6876;50.788;4.940;2023-04-03T01:27:54;2.70;99.90
13610;DHT22;6876;50.788;4.940;2023-04-03T01:30:44;2.60;99.90
13610;DHT22;6876;50.788;4.940;2023-04-03T01:33:34;2.60;99.90
13610;DHT22;6876;50.788;4.940;2023-04-03T01:36:23;2.60;99.90
13610;DHT22;6876;50.788;4.940;2023-04-03T01:39:11;2.60;99.90
13610;DHT22;6876;50.788;4.940;2023-04-03T01:41:59;2.60;99.90
13610;DHT22;6876;50.788;4.940;2023-04-03T01:44:46;2.50;99.90
13610;DHT22;6876;50.788;4.940;2023-04-03T01:47:33;2.40;99.90
13610;DHT22;6876;50.788;4.940;2023-04-03T01:50:22;2.40;99.90
13610;DHT22;6876;50.788;4.940;2023-04-03T01:53:09;2.30;99.90
13610;DHT22;6876;50.788;4.940;2023-04-03T01:55:56;2.30;99.90
13610;DHT22;6876;50.788;4.940;2023-04-03T01:58:44;2.20;99.90
13610;DHT22;6876;50.788;4.940;2023-04-03T02:01:31;2.10;99.90
13610;DHT22;6876;50.788;4.940;2023-04-03T02:04:18;2.00;99.90
13610;DHT22;6876;50.788;4.940;2023-04-03T02:07:07;2.00;99.90
13610;DHT22;6876;50.788;4.940;2023-04-03T02:09:54;2.00;99.90
13610;DHT22;6876;50.788;4.940;2023-04-03T02:12:41;2.00;99.90
13610;DHT22;6876;50.788;4.940;2023-04-03T02:15:29;2.00;99.90
13610;DHT22;6876;50.788;4.940;2023-04-03T02:18:17;1.90;99.90
13610;DHT22;6876;50.788;4.940;2023-04-03T02:21:05;1.90;99.90
13610;DHT22;6876;50.788;4.940;2023-04-03T02:23:53;2.00;99.90
13610;DHT22;6876;50.788;4.940;2023-04-03T02:26:41;1.90;99.90
13610;DHT22;6876;50.788;4.940;2023-04-03T02:29:28;1.90;99.90
13610;DHT22;6876;50.788;4.940;2023-04-03T02:32:15;1.80;99.90
13610;DHT22;6876;50.788;4.940;2023-04-03T02:35:03;1.80;99.90
13610;DHT22;6876;50.788;4.940;2023-04-03T02:37:51;1.80;99.90
13610;DHT22;6876;50.788;4.940;2023-04-03T02:40:39;1.70;99.90
13610;DHT22;6876;50.788;4.940;2023-04-03T02:43:26;1.70;99.90
13610;DHT22;6876;50.788;4.940;2023-04-03T02:46:14;1.60;99.90
13610;DHT22;6876;50.788;4.940;2023-04-03T02:49:01;1.60;99.90
13610;DHT22;6876;50.788;4.940;2023-04-03T02:51:49;1.50;99.90
13610;DHT22;6876;50.788;4.940;2023-04-03T02:54:36;1.40;99.90
13610;DHT22;6876;50.788;4.940;2023-04-03T02:57:25;1.40;99.90
13610;DHT22;6876;50.788;4.940;2023-04-03T03:00:13;1.30;99.90
13610;DHT22;6876;50.788;4.940;2023-04-03T03:03:00;1.30;99.90
13610;DHT22;6876;50.788;4.940;2023-04-03T03:05:47;1.30;99.90
13610;DHT22;6876;50.788;4.940;2023-04-03T03:08:35;1.30;99.90
13610;DHT22;6876;50.788;4.940;2023-04-03T03:11:22;1.30;99.90
13610;DHT22;6876;50.788;4.940;2023-04-03T03:14:11;1.30;99.90
13610;DHT22;6876;50.788;4.940;2023-04-03T03:16:58;1.30;99.90
13610;DHT22;6876;50.788;4.940;2023-04-03T03:19:45;1.20;99.90
13610;DHT22;6876;50.788;4.940;2023-04-03T03:22:34;1.20;99.90
13610;DHT22;6876;50.788;4.940;2023-04-03T03:25:21;1.10;99.90
13610;DHT22;6876;50.788;4.940;2023-04-03T03:28:08;1.10;99.90
13610;DHT22;6876;50.788;4.940;2023-04-03T03:30:59;1.20;99.90
13610;DHT22;6876;50.788;4.940;2023-04-03T03:33:46;1.10;99.90
13610;DHT22;6876;50.788;4.940;2023-04-03T03:36:33;1.10;99.90
13610;DHT22;6876;50.788;4.940;2023-04-03T03:39:21;1.10;99.90
13610;DHT22;6876;50.788;4.940;2023-04-03T03:42:08;1.10;99.90
13610;DHT22;6876;50.788;4.940;2023-04-03T03:44:56;1.10;99.90
13610;DHT22;6876;50.788;4.940;2023-04-03T03:47:45;1.10;99.90
13610;DHT22;6876;50.788;4.940;2023-04-03T03:50:33;1.10;99.90
13610;DHT22;6876;50.788;4.940;2023-04-03T03:53:20;1.10;99.90
13610;DHT22;6876;50.788;4.940;2023-04-03T03:56:07;1.10;99.90
13610;DHT22;6876;50.788;4.940;2023-04-03T03:58:54;1.10;99.90
13610;DHT22;6876;50.788;4.940;2023-04-03T04:01:42;1.10;99.90
13610;DHT22;6876;50.788;4.940;2023-04-03T04:04:30;1.10;99.90
13610;DHT22;6876;50.788;4.940;2023-04-03T04:07:18;1.10;99.90
13610;DHT22;6876;50.788;4.940;2023-04-03T04:10:06;1.10;99.90
13610;DHT22;6876;50.788;4.940;2023-04-03T04:12:54;1.10;99.90
13610;DHT22;6876;50.788;4.940;2023-04-03T04:15:42;1.10;99.90
13610;DHT22;6876;50.788;4.940;2023-04-03T04:18:29;1.10;99.90
13610;DHT22;6876;50.788;4.940;2023-04-03T04:21:18;1.10;99.90
13610;DHT22;6876;50.788;4.940;2023-04-03T04:24:06;1.10;99.90
13610;DHT22;6876;50.788;4.940;2023-04-03T04:26:53;1.10;99.90
13610;DHT22;6876;50.788;4.940;2023-04-03T04:29:40;1.00;99.90
13610;DHT22;6876;50.788;4.940;2023-04-03T04:32:27;1.00;99.90
13610;DHT22;6876;50.788;4.940;2023-04-03T04:35:14;1.00;99.90
13610;DHT22;6876;50.788;4.940;2023-04-03T04:38:03;1.00;99.90
13610;DHT22;6876;50.788;4.940;2023-04-03T04:40:50;1.00;99.90
13610;DHT22;6876;50.788;4.940;2023-04-03T04:43:38;1.00;99.90
13610;DHT22;6876;50.788;4.940;2023-04-03T04:46:25;1.00;99.90
13610;DHT22;6876;50.788;4.940;2023-04-03T04:49:12;1.00;99.90
13610;DHT22;6876;50.788;4.940;2023-04-03T04:52:00;1.00;99.90
13610;DHT22;6876;50.788;4.940;2023-04-03T04:54:48;1.00;99.90
13610;DHT22;6876;50.788;4.940;2023-04-03T04:57:35;0.90;99.90
13610;DHT22;6876;50.788;4.940;2023-04-03T05:00:24;0.90;99.90
13610;DHT22;6876;50.788;4.940;2023-04-03T05:03:11;0.90;99.90
13610;DHT22;6876;50.788;4.940;2023-04-03T05:05:59;0.90;99.90
13610;DHT22;6876;50.788;4.940;2023-04-03T05:08:46;0.90;99.90
13610;DHT22;6876;50.788;4.940;2023-04-03T05:11:35;0.90;99.90
13610;DHT22;6876;50.788;4.940;2023-04-03T05:14:22;0.80;99.90
13610;DHT22;6876;50.788;4.940;2023-04-03T05:17:09;0.80;99.90
13610;DHT22;6876;50.788;4.940;2023-04-03T05:19:56;0.90;99.90
13610;DHT22;6876;50.788;4.940;2023-04-03T05:22:44;1.00;99.90
13610;DHT22;6876;50.788;4.940;2023-04-03T05:25:31;1.00;99.90
13610;DHT22;6876;50.788;4.940;2023-04-03T05:28:19;1.00;99.90
13610;DHT22;6876;50.788;4.940;2023-04-03T05:31:07;1.00;99.90
13610;DHT22;6876;50.788;4.940;2023-04-03T05:33:54;0.80;99.90
13610;DHT22;6876;50.788;4.940;2023-04-03T05:36:42;0.80;99.90
13610;DHT22;6876;50.788;4.940;2023-04-03T05:39:29;0.90;99.90
13610;DHT22;6876;50.788;4.940;2023-04-03T05:42:17;1.00;99.90
13610;DHT22;6876;50.788;4.940;2023-04-03T05:45:06;1.00;99.90
13610;DHT22;6876;50.788;4.940;2023-04-03T05:47:54;1.30;99.90
13610;DHT22;6876;50.788;4.940;2023-04-03T05:50:41;1.50;99.90
13610;DHT22;6876;50.788;4.940;2023-04-03T05:53:31;1.50;99.90
13610;DHT22;6876;50.788;4.940;2023-04-03T05:56:20;1.70;99.90
13610;DHT22;6876;50.788;4.940;2023-04-03T05:59:07;2.00;99.90
13610;DHT22;6876;50.788;4.940;2023-04-03T06:01:55;2.20;99.90
13610;DHT22;6876;50.788;4.940;2023-04-03T06:04:43;2.90;99.90
13610;DHT22;6876;50.788;4.940;2023-04-03T06:07:30;4.20;99.90
13610;DHT22;6876;50.788;4.940;2023-04-03T06:10:17;5.80;99.90
13610;DHT22;6876;50.788;4.940;2023-04-03T06:13:06;6.90;1.00
13610;DHT22;6876;50.788;4.940;2023-04-03T06:15:53;7.70;99.90
13610;DHT22;6876;50.788;4.940;2023-04-03T06:18:42;8.40;99.90
13610;DHT22;6876;50.788;4.940;2023-04-03T06:21:30;9.00;99.90
13610;DHT22;6876;50.788;4.940;2023-04-03T06:24:17;9.50;99.90
13610;DHT22;6876;50.788;4.940;2023-04-03T06:27:05;9.80;99.90
13610;DHT22;6876;50.788;4.940;2023-04-03T06:29:53;10.50;99.90
13610;DHT22;6876;50.788;4.940;2023-04-03T06:32:40;10.90;99.90
13610;DHT22;6876;50.788;4.940;2023-04-03T06:35:30;11.10;99.90
13610;DHT22;6876;50.788;4.940;2023-04-03T06:38:17;11.20;99.90
13610;DHT22;6876;50.788;4.940;2023-04-03T06:41:04;11.70;99.90
13610;DHT22;6876;50.788;4.940;2023-04-03T06:43:52;12.00;99.90
13610;DHT22;6876;50.788;4.940;2023-04-03T06:46:39;12.10;99.90
13610;DHT22;6876;50.788;4.940;2023-04-03T06:49:26;12.50;99.90
13610;DHT22;6876;50.788;4.940;2023-04-03T06:52:16;12.10;99.90
13610;DHT22;6876;50.788;4.940;2023-04-03T06:55:04;12.20;99.90
13610;DHT22;6876;50.788;4.940;2023-04-03T06:57:51;11.90;99.90
13610;DHT22;6876;50.788;4.940;2023-04-03T07:00:38;12.00;99.90
13610;DHT22;6876;50.788;4.940;2023-04-03T07:03:26;12.30;99.90
13610;DHT22;6876;50.788;4.940;2023-04-03T07:06:15;13.00;99.90
13610;DHT22;6876;50.788;4.940;2023-04-03T07:09:04;13.20;99.90
13610;DHT22;6876;50.788;4.940;2023-04-03T07:11:52;13.30;99.90
13610;DHT22;6876;50.788;4.940;2023-04-03T07:14:39;12.70;99.90
13610;DHT22;6876;50.788;4.940;2023-04-03T07:17:27;13.40;99.90
13610;DHT22;6876;50.788;4.940;2023-04-03T07:20:14;13.60;99.90
13610;DHT22;6876;50.788;4.940;2023-04-03T07:23:02;14.00;99.90
13610;DHT22;6876;50.788;4.940;2023-04-03T07:25:51;14.00;99.90
13610;DHT22;6876;50.788;4.940;2023-04-03T07:28:39;13.70;99.90
13610;DHT22;6876;50.788;4.940;2023-04-03T07:31:27;14.50;99.90
13610;DHT22;6876;50.788;4.940;2023-04-03T07:34:14;15.00;99.90
13610;DHT22;6876;50.788;4.940;2023-04-03T07:37:02;15.40;99.90
13610;DHT22;6876;50.788;4.940;2023-04-03T07:39:50;15.60;99.90
13610;DHT22;6876;50.788;4.940;2023-04-03T07:42:39;15.40;99.90
13610;DHT22;6876;50.788;4.940;2023-04-03T07:45:26;15.70;99.90
13610;DHT22;6876;50.788;4.940;2023-04-03T07:48:13;15.90;99.90
13610;DHT22;6876;50.788;4.940;2023-04-03T07:51:02;16.90;99.90
13610;DHT22;6876;50.788;4.940;2023-04-03T07:53:49;16.70;99.90
13610;DHT22;6876;50.788;4.940;2023-04-03T07:56:37;16.40;99.90
13610;DHT22;6876;50.788;4.940;2023-04-03T07:59:25;16.70;99.90
13610;DHT22;6876;50.788;4.940;2023-04-03T08:02:12;16.70;99.90
13610;DHT22;6876;50.788;4.940;2023-04-03T08:05:00;17.30;99.90
13610;DHT22;6876;50.788;4.940;2023-04-03T08:07:47;17.60;99.90
13610;DHT22;6876;50.788;4.940;2023-04-03T08:10:34;17.90;99.90
13610;DHT22;6876;50.788;4.940;2023-04-03T08:13:22;17.70;99.30
13610;DHT22;6876;50.788;4.940;2023-04-03T08:16:13;17.90;98.70
13610;DHT22;6876;50.788;4.940;2023-04-03T08:19:04;17.80;98.40
13610;DHT22;6876;50.788;4.940;2023-04-03T08:21:53;18.20;98.50
13610;DHT22;6876;50.788;4.940;2023-04-03T08:24:41;18.70;97.40
13610;DHT22;6876;50.788;4.940;2023-04-03T08:27:28;18.50;97.20
13610;DHT22;6876;50.788;4.940;2023-04-03T08:30:15;19.30;95.90
13610;DHT22;6876;50.788;4.940;2023-04-03T08:33:04;19.10;95.90
13610;DHT22;6876;50.788;4.940;2023-04-03T08:35:52;18.80;95.50
13610;DHT22;6876;50.788;4.940;2023-04-03T08:38:39;19.20;96.00
13610;DHT22;6876;50.788;4.940;2023-04-03T08:41:31;19.40;94.20
13610;DHT22;6876;50.788;4.940;2023-04-03T08:44:25;19.10;94.80
13610;DHT22;6876;50.788;4.940;2023-04-03T08:47:20;18.70;93.00
13610;DHT22;6876;50.788;4.940;2023-04-03T08:50:16;18.10;95.30
13610;DHT22;6876;50.788;4.940;2023-04-03T08:53:04;18.90;93.50
13610;DHT22;6876;50.788;4.940;2023-04-03T08:55:53;17.90;93.80
13610;DHT22;6876;50.788;4.940;2023-04-03T08:58:44;17.30;94.80
13610;DHT22;6876;50.788;4.940;2023-04-03T09:01:36;17.70;94.60
13610;DHT22;6876;50.788;4.940;2023-04-03T09:04:25;17.80;93.30
13610;DHT22;6876;50.788;4.940;2023-04-03T09:07:20;17.70;93.50
13610;DHT22;6876;50.788;4.940;2023-04-03T09:10:11;17.60;93.30
13610;DHT22;6876;50.788;4.940;2023-04-03T09:13:03;17.90;92.80
13610;DHT22;6876;50.788;4.940;2023-04-03T09:15:53;16.90;93.40
13610;DHT22;6876;50.788;4.940;2023-04-03T09:18:44;17.80;93.20
13610;DHT22;6876;50.788;4.940;2023-04-03T09:21:37;18.50;92.20
13610;DHT22;6876;50.788;4.940;2023-04-03T09:24:28;19.10;91.60
13610;DHT22;6876;50.788;4.940;2023-04-03T09:27:18;19.40;90.90
13610;DHT22;6876;50.788;4.940;2023-04-03T09:30:08;20.30;90.20
13610;DHT22;6876;50.788;4.940;2023-04-03T09:32:59;20.40;89.60
13610;DHT22;6876;50.788;4.940;2023-04-03T09:35:47;20.40;90.20
13610;DHT22;6876;50.788;4.940;2023-04-03T09:38:35;20.80;88.60
13610;DHT22;6876;50.788;4.940;2023-04-03T09:41:24;20.40;85.70
13610;DHT22;6876;50.788;4.940;2023-04-03T09:44:21;19.90;87.90
13610;DHT22;6876;50.788;4.940;2023-04-03T09:47:18;20.10;85.50
13610;DHT22;6876;50.788;4.940;2023-04-03T09:50:19;20.00;84.20
13610;DHT22;6876;50.788;4.940;2023-04-03T09:53:26;19.80;87.70
13610;DHT22;6876;50.788;4.940;2023-04-03T09:56:25;19.70;87.50
13610;DHT22;6876;50.788;4.940;2023-04-03T09:59:14;20.50;83.80
13610;DHT22;6876;50.788;4.940;2023-04-03T10:02:07;19.70;84.90
13610;DHT22;6876;50.788;4.940;2023-04-03T10:05:30;18.60;83.30
13610;DHT22;6876;50.788;4.940;2023-04-03T10:08:25;18.20;87.00
13610;DHT22;6876;50.788;4.940;2023-04-03T10:11:15;17.30;87.70
13610;DHT22;6876;50.788;4.940;2023-04-03T10:14:04;16.80;90.20
13610;DHT22;6876;50.788;4.940;2023-04-03T10:16:57;16.50;90.50
13610;DHT22;6876;50.788;4.940;2023-04-03T10:19:53;16.10;90.80
13610;DHT22;6876;50.788;4.940;2023-04-03T10:22:48;16.00;90.30
13610;DHT22;6876;50.788;4.940;2023-04-03T10:25:43;15.30;91.00
13610;DHT22;6876;50.788;4.940;2023-04-03T10:28:38;15.20;91.10
13610;DHT22;6876;50.788;4.940;2023-04-03T10:31:34;14.60;91.80
13610;DHT22;6876;50.788;4.940;2023-04-03T10:34:28;14.80;90.30
13610;DHT22;6876;50.788;4.940;2023-04-03T10:37:23;14.70;90.30
13610;DHT22;6876;50.788;4.940;2023-04-03T10:40:23;14.70;92.40
13610;DHT22;6876;50.788;4.940;2023-04-03T10:43:17;14.50;91.90
13610;DHT22;6876;50.788;4.940;2023-04-03T10:46:13;14.10;91.40
13610;DHT22;6876;50.788;4.940;2023-04-03T10:49:15;13.90;92.10
13610;DHT22;6876;50.788;4.940;2023-04-03T10:52:11;13.90;93.60
13610;DHT22;6876;50.788;4.940;2023-04-03T10:55:09;13.50;90.50
13610;DHT22;6876;50.788;4.940;2023-04-03T10:58:01;13.30;90.50
13610;DHT22;6876;50.788;4.940;2023-04-03T11:00:50;13.00;90.80
13610;DHT22;6876;50.788;4.940;2023-04-03T11:03:41;12.90;90.20
13610;DHT22;6876;50.788;4.940;2023-04-03T11:06:37;12.60;91.30
13610;DHT22;6876;50.788;4.940;2023-04-03T11:09:27;12.60;92.30
13610;DHT22;6876;50.788;4.940;2023-04-03T11:12:18;12.60;92.10
13610;DHT22;6876;50.788;4.940;2023-04-03T11:15:12;12.70;92.10
13610;DHT22;6876;50.788;4.940;2023-04-03T11:18:02;12.10;91.60
13610;DHT22;6876;50.788;4.940;2023-04-03T11:20:59;11.80;92.50
13610;DHT22;6876;50.788;4.940;2023-04-03T11:23:51;12.10;92.90
13610;DHT22;6876;50.788;4.940;2023-04-03T11:26:42;12.30;92.40
13610;DHT22;6876;50.788;4.940;2023-04-03T11:29:32;12.30;90.50
13610;DHT22;6876;50.788;4.940;2023-04-03T11:32:42;12.50;88.10
13610;DHT22;6876;50.788;4.940;2023-04-03T11:35:36;12.30;89.70
13610;DHT22;6876;50.788;4.940;2023-04-03T11:38:27;11.80;84.30
13610;DHT22;6876;50.788;4.940;2023-04-03T11:41:25;11.40;84.80
13610;DHT22;6876;50.788;4.940;2023-04-03T11:44:30;11.50;87.10
13610;DHT22;6876;50.788;4.940;2023-04-03T11:47:46;11.60;85.60
13610;DHT22;6876;50.788;4.940;2023-04-03T11:50:43;11.30;84.90
13610;DHT22;6876;50.788;4.940;2023-04-03T11:53:33;11.30;84.70
13610;DHT22;6876;50.788;4.940;2023-04-03T11:56:30;11.60;84.10
13610;DHT22;6876;50.788;4.940;2023-04-03T11:59:24;11.40;83.60
13610;DHT22;6876;50.788;4.940;2023-04-03T12:02:35;11.30;82.70
13610;DHT22;6876;50.788;4.940;2023-04-03T12:05:27;11.50;83.80
13610;DHT22;6876;50.788;4.940;2023-04-03T12:08:25;11.30;77.80
13610;DHT22;6876;50.788;4.940;2023-04-03T12:11:23;11.00;82.10
13610;DHT22;6876;50.788;4.940;2023-04-03T12:14:15;11.00;83.80
13610;DHT22;6876;50.788;4.940;2023-04-03T12:17:11;10.90;82.10
13610;DHT22;6876;50.788;4.940;2023-04-03T12:23:59;10.90;83.70
13610;DHT22;6876;50.788;4.940;2023-04-03T12:26:50;11.10;83.10
13610;DHT22;6876;50.788;4.940;2023-04-03T12:29:46;11.00;83.50
13610;DHT22;6876;50.788;4.940;2023-04-03T12:33:02;10.90;84.50
13610;DHT22;6876;50.788;4.940;2023-04-03T12:35:58;10.80;83.60
13610;DHT22;6876;50.788;4.940;2023-04-03T12:39:28;10.70;86.80
13610;DHT22;6876;50.788;4.940;2023-04-03T12:42:41;10.60;83.90
13610;DHT22;6876;50.788;4.940;2023-04-03T12:45:40;10.40;87.70
13610;DHT22;6876;50.788;4.940;2023-04-03T12:48:30;10.70;87.40
13610;DHT22;6876;50.788;4.940;2023-04-03T12:51:20;10.40;89.20
13610;DHT22;6876;50.788;4.940;2023-04-03T12:54:14;10.30;85.90
13610;DHT22;6876;50.788;4.940;2023-04-03T12:57:15;10.30;91.10
13610;DHT22;6876;50.788;4.940;2023-04-03T13:00:19;10.60;91.50
13610;DHT22;6876;50.788;4.940;2023-04-03T13:03:21;10.50;90.50
13610;DHT22;6876;50.788;4.940;2023-04-03T13:06:14;10.40;89.00
13610;DHT22;6876;50.788;4.940;2023-04-03T13:09:04;10.50;90.60
13610;DHT22;6876;50.788;4.940;2023-04-03T13:11:55;10.60;90.10
13610;DHT22;6876;50.788;4.940;2023-04-03T13:14:52;10.50;89.40
13610;DHT22;6876;50.788;4.940;2023-04-03T13:17:42;10.50;90.90
13610;DHT22;6876;50.788;4.940;2023-04-03T13:20:32;10.60;90.70
13610;DHT22;6876;50.788;4.940;2023-04-03T13:23:21;10.60;90.30
13610;DHT22;6876;50.788;4.940;2023-04-03T13:26:09;10.50;88.60
13610;DHT22;6876;50.788;4.940;2023-04-03T13:28:59;10.30;88.60
13610;DHT22;6876;50.788;4.940;2023-04-03T13:31:53;10.20;89.30
13610;DHT22;6876;50.788;4.940;2023-04-03T13:34:43;10.10;90.40
13610;DHT22;6876;50.788;4.940;2023-04-03T13:37:33;10.40;91.20
13610;DHT22;6876;50.788;4.940;2023-04-03T13:40:26;10.50;90.40
13610;DHT22;6876;50.788;4.940;2023-04-03T13:43:18;10.50;89.80
13610;DHT22;6876;50.788;4.940;2023-04-03T13:46:23;10.30;89.20
13610;DHT22;6876;50.788;4.940;2023-04-03T13:49:20;10.40;90.50
13610;DHT22;6876;50.788;4.940;2023-04-03T13:52:24;10.40;89.50
13610;DHT22;6876;50.788;4.940;2023-04-03T13:55:23;10.40;87.10
13610;DHT22;6876;50.788;4.940;2023-04-03T13:58:21;10.40;90.40
13610;DHT22;6876;50.788;4.940;2023-04-03T14:01:11;10.50;91.40
13610;DHT22;6876;50.788;4.940;2023-04-03T14:04:11;10.50;91.00
13610;DHT22;6876;50.788;4.940;2023-04-03T14:06:59;10.40;90.60
13610;DHT22;6876;50.788;4.940;2023-04-03T14:09:47;10.60;90.90
13610;DHT22;6876;50.788;4.940;2023-04-03T14:12:37;10.60;91.10
13610;DHT22;6876;50.788;4.940;2023-04-03T14:15:27;10.60;91.10
13610;DHT22;6876;50.788;4.940;2023-04-03T14:18:17;10.40;90.60
13610;DHT22;6876;50.788;4.940;2023-04-03T14:21:05;10.40;93.50
13610;DHT22;6876;50.788;4.940;2023-04-03T14:23:52;10.40;91.20
13610;DHT22;6876;50.788;4.940;2023-04-03T14:26:40;10.40;91.80
13610;DHT22;6876;50.788;4.940;2023-04-03T14:29:29;10.50;92.20
13610;DHT22;6876;50.788;4.940;2023-04-03T14:32:18;10.60;91.20
13610;DHT22;6876;50.788;4.940;2023-04-03T14:35:06;10.60;91.50
13610;DHT22;6876;50.788;4.940;2023-04-03T14:37:55;10.40;91.90
13610;DHT22;6876;50.788;4.940;2023-04-03T14:40:42;10.50;93.40
13610;DHT22;6876;50.788;4.940;2023-04-03T14:43:29;10.50;92.20
13610;DHT22;6876;50.788;4.940;2023-04-03T14:46:30;10.50;91.60
13610;DHT22;6876;50.788;4.940;2023-04-03T14:49:20;10.50;93.60
13610;DHT22;6876;50.788;4.940;2023-04-03T14:52:18;10.60;91.60
13610;DHT22;6876;50.788;4.940;2023-04-03T14:55:06;10.60;93.10
13610;DHT22;6876;50.788;4.940;2023-04-03T14:57:54;10.60;91.60
13610;DHT22;6876;50.788;4.940;2023-04-03T15:00:42;10.60;91.80
13610;DHT22;6876;50.788;4.940;2023-04-03T15:03:30;10.50;91.60
13610;DHT22;6876;50.788;4.940;2023-04-03T15:06:18;10.50;92.60
13610;DHT22;6876;50.788;4.940;2023-04-03T15:09:12;10.40;91.80
13610;DHT22;6876;50.788;4.940;2023-04-03T15:12:02;10.40;92.10
13610;DHT22;6876;50.788;4.940;2023-04-03T15:14:49;10.50;91.40
13610;DHT22;6876;50.788;4.940;2023-04-03T15:17:37;10.40;91.90
13610;DHT22;6876;50.788;4.940;2023-04-03T15:20:28;10.40;92.00
13610;DHT22;6876;50.788;4.940;2023-04-03T15:23:16;10.30;91.20
13610;DHT22;6876;50.788;4.940;2023-04-03T15:26:05;10.20;92.20
13610;DHT22;6876;50.788;4.940;2023-04-03T15:28:53;10.30;92.40
13610;DHT22;6876;50.788;4.940;2023-04-03T15:31:40;10.30;92.60
13610;DHT22;6876;50.788;4.940;2023-04-03T15:34:28;10.30;92.60
13610;DHT22;6876;50.788;4.940;2023-04-03T15:37:17;10.20;91.70
13610;DHT22;6876;50.788;4.940;2023-04-03T15:40:06;10.10;91.80
13610;DHT22;6876;50.788;4.940;2023-04-03T15:42:53;10.20;92.60
13610;DHT22;6876;50.788;4.940;2023-04-03T15:45:42;10.30;94.20
13610;DHT22;6876;50.788;4.940;2023-04-03T15:48:29;10.30;92.20
13610;DHT22;6876;50.788;4.940;2023-04-03T15:51:17;10.30;93.40
13610;DHT22;6876;50.788;4.940;2023-04-03T15:54:05;10.30;93.00
13610;DHT22;6876;50.788;4.940;2023-04-03T15:56:53;10.20;92.70
13610;DHT22;6876;50.788;4.940;2023-04-03T15:59:40;10.10;91.90
13610;DHT22;6876;50.788;4.940;2023-04-03T16:02:27;10.00;91.30
13610;DHT22;6876;50.788;4.940;2023-04-03T16:05:15;10.10;91.90
13610;DHT22;6876;50.788;4.940;2023-04-03T16:08:03;10.10;91.80
13610;DHT22;6876;50.788;4.940;2023-04-03T16:10:52;10.10;93.10
13610;DHT22;6876;50.788;4.940;2023-04-03T16:13:40;10.00;92.30
13610;DHT22;6876;50.788;4.940;2023-04-03T16:16:27;10.00;92.70
13610;DHT22;6876;50.788;4.940;2023-04-03T16:19:15;9.90;92.90
13610;DHT22;6876;50.788;4.940;2023-04-03T16:22:02;9.90;93.30
13610;DHT22;6876;50.788;4.940;2023-04-03T16:24:49;10.00;93.60
13610;DHT22;6876;50.788;4.940;2023-04-03T16:27:39;9.90;91.90
13610;DHT22;6876;50.788;4.940;2023-04-03T16:30:26;9.80;91.70
13610;DHT22;6876;50.788;4.940;2023-04-03T16:33:13;9.70;91.70
13610;DHT22;6876;50.788;4.940;2023-04-03T16:36:01;9.70;92.60
13610;DHT22;6876;50.788;4.940;2023-04-03T16:38:49;9.70;92.90
13610;DHT22;6876;50.788;4.940;2023-04-03T16:41:36;9.70;92.60
13610;DHT22;6876;50.788;4.940;2023-04-03T16:44:25;9.80;94.90
13610;DHT22;6876;50.788;4.940;2023-04-03T16:47:12;9.80;93.80
13610;DHT22;6876;50.788;4.940;2023-04-03T16:50:03;9.70;94.00
13610;DHT22;6876;50.788;4.940;2023-04-03T16:52:51;9.70;93.70
13610;DHT22;6876;50.788;4.940;2023-04-03T16:55:38;9.60;94.70
13610;DHT22;6876;50.788;4.940;2023-04-03T16:58:26;9.60;94.00
13610;DHT22;6876;50.788;4.940;2023-04-03T17:01:16;9.50;94.10
13610;DHT22;6876;50.788;4.940;2023-04-03T17:04:03;9.50;93.30
13610;DHT22;6876;50.788;4.940;2023-04-03T17:06:51;9.50;93.50
13610;DHT22;6876;50.788;4.940;2023-04-03T17:09:38;9.40;93.50
13610;DHT22;6876;50.788;4.940;2023-04-03T17:12:26;9.30;93.70
13610;DHT22;6876;50.788;4.940;2023-04-03T17:15:13;9.30;94.40
13610;DHT22;6876;50.788;4.940;2023-04-03T17:18:02;9.30;94.10
13610;DHT22;6876;50.788;4.940;2023-04-03T17:20:49;9.20;94.30
13610;DHT22;6876;50.788;4.940;2023-04-03T17:23:38;9.10;93.70
13610;DHT22;6876;50.788;4.940;2023-04-03T17:26:26;9.10;93.70
13610;DHT22;6876;50.788;4.940;2023-04-03T17:29:14;9.00;94.30
13610;DHT22;6876;50.788;4.940;2023-04-03T17:32:01;8.90;94.50
13610;DHT22;6876;50.788;4.940;2023-04-03T17:34:50;8.90;94.40
13610;DHT22;6876;50.788;4.940;2023-04-03T17:37:37;8.80;95.00
13610;DHT22;6876;50.788;4.940;2023-04-03T17:40:24;8.70;94.20
13610;DHT22;6876;50.788;4.940;2023-04-03T17:43:12;8.70;94.80
13610;DHT22;6876;50.788;4.940;2023-04-03T17:46:01;8.60;94.80
13610;DHT22;6876;50.788;4.940;2023-04-03T17:48:49;8.50;95.40
13610;DHT22;6876;50.788;4.940;2023-04-03T17:51:38;8.40;94.40
13610;DHT22;6876;50.788;4.940;2023-04-03T17:54:25;8.40;94.60
13610;DHT22;6876;50.788;4.940;2023-04-03T17:57:13;8.30;95.30
13610;DHT22;6876;50.788;4.940;2023-04-03T18:00:00;8.30;95.60
13610;DHT22;6876;50.788;4.940;2023-04-03T18:02:51;8.20;94.80
13610;DHT22;6876;50.788;4.940;2023-04-03T18:05:38;8.10;95.50
13610;DHT22;6876;50.788;4.940;2023-04-03T18:08:27;8.10;95.30
13610;DHT22;6876;50.788;4.940;2023-04-03T18:11:16;8.00;95.90
13610;DHT22;6876;50.788;4.940;2023-04-03T18:14:04;7.90;96.30
13610;DHT22;6876;50.788;4.940;2023-04-03T18:16:53;7.80;97.00
13610;DHT22;6876;50.788;4.940;2023-04-03T18:19:42;7.70;97.10
13610;DHT22;6876;50.788;4.940;2023-04-03T18:22:29;7.60;97.80